ENCN/KRS METAR and TAF weather

Enter ICAO airport designator
Station Type Date Time Source
ENCN METAR 2020/01/18 04:20 UTC NOAA

ENCN 180420Z AUTO 20008KT 9999 OVC009/// 06/06 Q1003


Station Type Date Time Source
ENCN Decoded METAR 2020/01/18 04:20 UTC NOAA

Kristiansand / Kjevik, Norway (ENCN) 58-12N 008-05E 17M
Jan 17, 2020 - 11:20 PM EST / 2020.01.18 0420 UTC
Wind: from the SSW (200 degrees) at 9 MPH (8 KT):0
Visibility: greater than 7 mile(s):0
Sky conditions: overcast
Temperature: 42 F (6 C)
Dew Point: 42 F (6 C)
Relative Humidity: 100%
Pressure (altimeter): 29.62 in. Hg (1003 hPa)
ob: ENCN 180420Z AUTO 20008KT 9999 OVC009/// 06/06 Q1003
cycle: 4

Station Type Date Time Source
ENCN TAF 2016/05/06 12:39 UTC NOAA

TAF TAF ENCN 061100Z 0612/0712 14008KT 9999 FEW040

Example: see airport list